createdAt,value
2018-07-07T00:01:27.262Z,99.90
2018-07-07T00:03:55.811Z,99.90
2018-07-07T00:06:24.448Z,99.90
2018-07-07T00:08:52.750Z,99.90
2018-07-07T00:11:21.079Z,99.90
2018-07-07T00:13:49.730Z,99.90
2018-07-07T00:16:18.113Z,99.90
2018-07-07T00:18:46.447Z,99.90
2018-07-07T00:21:15.355Z,99.90
2018-07-07T00:23:43.667Z,99.90
2018-07-07T00:28:40.039Z,99.90
2018-07-07T00:31:08.731Z,99.90
2018-07-07T00:33:37.368Z,99.90
2018-07-07T00:36:05.643Z,99.90
2018-07-07T00:38:33.950Z,99.90
2018-07-07T00:41:02.618Z,99.90
2018-07-07T00:43:31.031Z,99.90
2018-07-07T00:45:59.646Z,99.90
2018-07-07T00:48:27.987Z,99.90
2018-07-07T00:50:56.301Z,99.90
2018-07-07T00:53:24.815Z,99.90
2018-07-07T00:55:53.091Z,99.90
2018-07-07T00:58:21.386Z,99.90
2018-07-07T01:00:51.951Z,99.90
2018-07-07T01:03:20.921Z,99.90
2018-07-07T01:05:49.539Z,99.90
2018-07-07T01:08:18.434Z,99.90
2018-07-07T01:10:46.740Z,99.90
2018-07-07T01:13:15.537Z,99.90
2018-07-07T01:15:44.004Z,99.90
2018-07-07T01:18:12.328Z,99.90
2018-07-07T01:20:40.620Z,99.90
2018-07-07T01:23:09.254Z,99.90
2018-07-07T01:25:37.570Z,99.90
2018-07-07T01:28:06.452Z,99.90
2018-07-07T01:30:34.783Z,99.90
2018-07-07T01:33:03.475Z,99.90
2018-07-07T01:35:31.818Z,99.90
2018-07-07T01:38:00.163Z,99.90
2018-07-07T01:40:28.454Z,99.90
2018-07-07T01:42:56.856Z,99.90
2018-07-07T01:45:25.135Z,99.90
2018-07-07T01:47:53.471Z,99.90
2018-07-07T01:50:21.772Z,99.90
2018-07-07T01:52:50.406Z,99.90
2018-07-07T01:55:18.749Z,99.90
2018-07-07T01:57:47.040Z,99.90
2018-07-07T02:00:15.767Z,99.90
2018-07-07T02:02:44.063Z,99.90
2018-07-07T02:05:12.342Z,99.90
2018-07-07T02:07:41.020Z,99.90
2018-07-07T02:10:09.336Z,99.90
2018-07-07T02:12:37.790Z,99.90
2018-07-07T02:15:06.127Z,99.90
2018-07-07T02:17:34.425Z,99.90
2018-07-07T02:22:30.786Z,99.90
2018-07-07T02:24:59.097Z,99.90
2018-07-07T02:27:27.370Z,99.90
2018-07-07T02:29:55.993Z,99.90
2018-07-07T02:32:24.535Z,99.90
2018-07-07T02:34:52.850Z,99.90
2018-07-07T02:37:21.149Z,99.90
2018-07-07T02:39:49.455Z,99.90
2018-07-07T02:42:17.736Z,99.90
2018-07-07T02:44:46.030Z,99.90
2018-07-07T02:47:14.353Z,99.90
2018-07-07T02:49:43.021Z,99.90
2018-07-07T02:52:11.724Z,99.90
2018-07-07T02:54:40.018Z,99.90
2018-07-07T02:57:08.363Z,99.90
2018-07-07T02:59:36.946Z,99.90
2018-07-07T03:02:05.259Z,99.90
2018-07-07T03:04:33.535Z,99.90
2018-07-07T03:07:01.820Z,99.90
2018-07-07T03:09:30.116Z,99.90
2018-07-07T03:11:58.722Z,99.90
2018-07-07T03:14:27.069Z,99.90
2018-07-07T03:16:55.369Z,99.90
2018-07-07T03:19:23.657Z,99.90
2018-07-07T03:21:51.934Z,99.90
2018-07-07T03:24:20.213Z,99.90
2018-07-07T03:26:48.554Z,99.90
2018-07-07T03:29:16.849Z,99.90
2018-07-07T03:31:45.176Z,99.90
2018-07-07T03:34:13.823Z,99.90
2018-07-07T03:36:42.115Z,99.90
2018-07-07T03:39:10.428Z,99.90
2018-07-07T03:41:38.789Z,99.90
2018-07-07T03:44:07.282Z,99.90
2018-07-07T03:46:35.576Z,99.90
2018-07-07T03:49:04.194Z,99.90
2018-07-07T03:51:32.500Z,99.90
2018-07-07T03:54:00.991Z,99.90
2018-07-07T03:56:29.301Z,99.90
2018-07-07T03:58:57.721Z,99.90
2018-07-07T04:01:26.098Z,99.90
2018-07-07T04:03:54.395Z,99.90
2018-07-07T04:06:22.654Z,99.90
2018-07-07T04:08:50.976Z,99.90
2018-07-07T04:11:19.276Z,99.90
2018-07-07T04:13:47.568Z,99.90
2018-07-07T04:16:15.887Z,99.90
2018-07-07T04:18:44.239Z,99.90
2018-07-07T04:21:12.555Z,99.90
2018-07-07T04:23:40.830Z,99.90
2018-07-07T04:26:09.140Z,99.90
2018-07-07T04:28:37.418Z,99.90
2018-07-07T04:31:05.851Z,99.90
2018-07-07T04:33:34.203Z,99.90
2018-07-07T04:36:02.492Z,99.90
2018-07-07T04:38:30.802Z,99.90
2018-07-07T04:40:59.078Z,99.90
2018-07-07T04:43:27.416Z,99.90
2018-07-07T04:45:56.222Z,99.90
2018-07-07T04:48:24.667Z,99.90
2018-07-07T04:50:53.031Z,99.90
2018-07-07T04:53:21.343Z,99.90
2018-07-07T04:58:17.924Z,99.90
2018-07-07T05:03:14.938Z,99.90
2018-07-07T05:05:43.227Z,99.90
2018-07-07T05:08:11.521Z,99.90
2018-07-07T05:10:40.189Z,99.90
2018-07-07T05:13:08.509Z,99.90
2018-07-07T05:15:36.852Z,99.90
2018-07-07T05:18:05.660Z,99.90
2018-07-07T05:20:33.984Z,99.90
2018-07-07T05:25:30.962Z,99.90
2018-07-07T05:27:59.274Z,99.90
2018-07-07T05:30:27.589Z,99.90
2018-07-07T05:32:56.207Z,99.90
2018-07-07T05:35:24.574Z,99.90
2018-07-07T05:37:53.473Z,99.90
2018-07-07T05:40:22.130Z,99.90
2018-07-07T05:42:50.476Z,99.90
2018-07-07T05:45:18.916Z,99.90
2018-07-07T05:47:47.261Z,99.90
2018-07-07T05:50:15.836Z,99.90
2018-07-07T05:52:44.151Z,99.90
2018-07-07T05:55:12.445Z,99.50
2018-07-07T06:00:10.474Z,98.30
2018-07-07T06:05:07.466Z,96.20
2018-07-07T06:07:36.347Z,96.00
2018-07-07T06:10:05.232Z,96.70
2018-07-07T06:12:34.125Z,94.70
2018-07-07T06:15:03.081Z,93.80
2018-07-07T06:17:32.361Z,93.00
2018-07-07T06:20:01.304Z,92.70
2018-07-07T06:22:30.300Z,92.50
2018-07-07T06:24:59.195Z,92.00
2018-07-07T06:27:28.093Z,94.20
2018-07-07T06:29:57.000Z,92.30
2018-07-07T06:32:25.903Z,94.80
2018-07-07T06:34:54.746Z,93.00
2018-07-07T06:39:52.439Z,95.00
2018-07-07T06:42:21.347Z,93.50
2018-07-07T06:44:50.552Z,92.40
2018-07-07T06:47:19.439Z,90.00
2018-07-07T06:49:48.639Z,89.90
2018-07-07T06:52:17.563Z,86.80
2018-07-07T06:54:46.458Z,90.60
2018-07-07T06:57:15.345Z,90.80
2018-07-07T06:59:44.897Z,90.40
2018-07-07T07:02:13.850Z,90.00
2018-07-07T07:04:42.769Z,85.30
2018-07-07T07:07:11.614Z,84.30
2018-07-07T07:09:40.845Z,84.30
2018-07-07T07:12:09.788Z,80.90
2018-07-07T07:14:38.643Z,80.30
2018-07-07T07:17:07.494Z,79.10
2018-07-07T07:19:36.742Z,79.10
2018-07-07T07:22:05.989Z,80.50
2018-07-07T07:24:35.211Z,79.20
2018-07-07T07:27:04.606Z,76.80
2018-07-07T07:29:33.569Z,76.00
2018-07-07T07:32:02.418Z,78.70
2018-07-07T07:39:28.698Z,77.40
2018-07-07T07:41:57.661Z,78.10
2018-07-07T07:44:26.578Z,77.60
2018-07-07T07:49:24.034Z,76.70
2018-07-07T07:51:52.908Z,77.30
2018-07-07T07:54:21.756Z,77.40
2018-07-07T07:56:51.068Z,76.30
2018-07-07T08:01:48.261Z,76.70
2018-07-07T08:05:46.361Z,79.40
2018-07-07T08:08:15.479Z,77.20
2018-07-07T08:10:44.336Z,76.50
2018-07-07T08:13:13.253Z,74.00
2018-07-07T08:15:42.164Z,75.30
2018-07-07T08:18:11.061Z,75.40
2018-07-07T08:20:40.269Z,75.10
2018-07-07T08:23:09.459Z,74.70
2018-07-07T08:25:38.374Z,75.50
2018-07-07T08:28:07.293Z,74.60
2018-07-07T08:30:36.199Z,74.40
2018-07-07T08:33:05.029Z,72.90
2018-07-07T08:35:33.908Z,74.10
2018-07-07T08:38:03.147Z,73.90
2018-07-07T08:40:32.130Z,74.30
2018-07-07T08:43:01.102Z,74.50
2018-07-07T08:45:29.946Z,74.40
2018-07-07T08:47:58.817Z,75.20
2018-07-07T08:50:27.955Z,74.40
2018-07-07T08:52:56.880Z,73.10
2018-07-07T08:55:25.793Z,75.40
2018-07-07T08:57:54.709Z,73.50
2018-07-07T09:00:23.220Z,74.30
2018-07-07T09:02:52.126Z,73.70
2018-07-07T09:05:21.012Z,72.60
2018-07-07T09:07:53.168Z,76.30
2018-07-07T09:10:22.396Z,73.30
2018-07-07T09:12:51.392Z,72.20
2018-07-07T09:15:20.319Z,71.50
2018-07-07T09:17:49.532Z,71.70
2018-07-07T09:20:18.483Z,72.30
2018-07-07T09:22:47.613Z,72.10
2018-07-07T09:25:16.475Z,75.40
2018-07-07T09:27:45.672Z,74.50
2018-07-07T09:30:14.520Z,73.40
2018-07-07T09:32:46.634Z,71.80
2018-07-07T09:35:15.573Z,71.00
2018-07-07T09:37:44.802Z,70.50
2018-07-07T09:42:43.221Z,71.30
2018-07-07T09:45:12.079Z,70.50
2018-07-07T09:47:40.925Z,73.10
2018-07-07T09:50:10.118Z,72.80
2018-07-07T09:52:39.419Z,74.60
2018-07-07T09:55:08.409Z,72.20
2018-07-07T09:57:37.597Z,71.80
2018-07-07T10:00:11.328Z,72.80
2018-07-07T10:02:40.559Z,73.40
2018-07-07T10:05:09.501Z,74.80
2018-07-07T10:07:38.800Z,71.60
2018-07-07T10:10:08.136Z,73.60
2018-07-07T10:12:37.188Z,72.00
2018-07-07T10:15:06.102Z,74.60
2018-07-07T10:17:35.343Z,70.50
2018-07-07T10:20:04.727Z,72.20
2018-07-07T10:22:33.572Z,73.70
2018-07-07T10:25:02.536Z,69.20
2018-07-07T10:27:31.663Z,69.00
2018-07-07T10:30:00.512Z,71.70
2018-07-07T10:32:29.529Z,68.80
2018-07-07T10:34:58.850Z,68.00
2018-07-07T10:37:28.074Z,62.60
2018-07-07T10:39:57.200Z,64.40
2018-07-07T10:42:26.061Z,64.50
2018-07-07T10:44:54.963Z,62.30
2018-07-07T10:47:23.854Z,63.70
2018-07-07T10:49:52.983Z,62.10
2018-07-07T10:52:21.597Z,63.70
2018-07-07T10:54:50.470Z,66.50
2018-07-07T10:57:19.081Z,67.80
2018-07-07T10:59:47.966Z,67.00
2018-07-07T11:02:16.577Z,66.50
2018-07-07T11:04:45.608Z,68.90
2018-07-07T11:07:14.611Z,68.90
2018-07-07T11:09:43.465Z,69.40
2018-07-07T11:12:12.479Z,70.90
2018-07-07T11:14:41.525Z,72.10
2018-07-07T11:17:10.422Z,70.10
2018-07-07T11:19:39.285Z,72.90
2018-07-07T11:22:08.186Z,75.20
2018-07-07T11:24:37.081Z,74.50
2018-07-07T11:27:06.223Z,74.20
2018-07-07T11:29:35.436Z,72.00
2018-07-07T11:32:04.374Z,72.90
2018-07-07T11:34:33.323Z,73.80
2018-07-07T11:37:02.240Z,75.60
2018-07-07T11:39:31.317Z,76.10
2018-07-07T11:42:00.203Z,75.60
2018-07-07T11:44:29.063Z,74.70
2018-07-07T11:46:57.987Z,72.90
2018-07-07T11:49:26.860Z,72.10
2018-07-07T11:51:55.753Z,74.50
2018-07-07T11:54:24.650Z,73.90
2018-07-07T11:56:53.536Z,71.10
2018-07-07T11:59:28.602Z,67.70
2018-07-07T12:01:57.212Z,70.50
2018-07-07T12:04:26.307Z,69.60
2018-07-07T12:06:55.275Z,70.80
2018-07-07T12:09:24.186Z,69.70
2018-07-07T12:11:53.032Z,69.70
2018-07-07T12:14:22.080Z,71.30
2018-07-07T12:16:50.948Z,71.20
2018-07-07T12:19:19.838Z,72.50
2018-07-07T12:21:48.690Z,71.60
2018-07-07T12:24:17.610Z,72.00
2018-07-07T12:26:46.511Z,73.70
2018-07-07T12:29:16.192Z,70.90
2018-07-07T12:31:45.134Z,70.00
2018-07-07T12:34:14.030Z,68.50
2018-07-07T12:36:43.029Z,68.20
2018-07-07T12:39:12.158Z,69.50
2018-07-07T12:41:41.434Z,66.00
2018-07-07T12:44:10.363Z,66.70
2018-07-07T12:49:08.543Z,66.70
2018-07-07T12:51:37.445Z,65.70
2018-07-07T12:54:06.351Z,65.60
2018-07-07T12:56:35.220Z,66.20
2018-07-07T12:59:04.462Z,69.90
2018-07-07T13:01:33.352Z,65.00
2018-07-07T13:04:02.250Z,67.20
2018-07-07T13:06:31.188Z,67.90
2018-07-07T13:09:00.094Z,65.40
2018-07-07T13:11:29.333Z,60.90
2018-07-07T13:13:58.210Z,61.30
2018-07-07T13:16:27.347Z,60.40
2018-07-07T13:19:00.040Z,61.50
2018-07-07T13:21:28.874Z,64.00
2018-07-07T13:23:57.686Z,65.70
2018-07-07T13:26:26.289Z,57.60
2018-07-07T13:31:24.019Z,59.80
2018-07-07T13:40:38.680Z,60.00
2018-07-07T13:43:07.540Z,57.50
2018-07-07T13:45:36.164Z,59.20
2018-07-07T13:48:04.759Z,57.30
2018-07-07T13:50:33.443Z,56.40
2018-07-07T13:53:02.031Z,53.80
2018-07-07T13:55:30.752Z,57.30
2018-07-07T13:57:59.641Z,56.30
2018-07-07T14:00:28.142Z,60.40
2018-07-07T14:02:56.778Z,55.80
2018-07-07T14:05:25.453Z,55.40
2018-07-07T14:07:53.929Z,56.30
2018-07-07T14:10:22.540Z,56.10
2018-07-07T14:12:51.510Z,57.90
2018-07-07T14:15:20.122Z,57.10
2018-07-07T14:17:48.704Z,58.40
2018-07-07T14:20:17.628Z,59.30
2018-07-07T14:22:46.229Z,63.20
2018-07-07T14:25:14.978Z,65.00
2018-07-07T14:27:43.887Z,60.90
2018-07-07T14:30:12.477Z,64.30
2018-07-07T14:32:41.046Z,58.30
2018-07-07T14:35:09.620Z,60.40
2018-07-07T14:37:38.142Z,57.00
2018-07-07T14:40:07.094Z,60.40
2018-07-07T14:42:47.400Z,56.90
2018-07-07T14:45:18.722Z,58.90
2018-07-07T14:47:49.514Z,59.40
2018-07-07T14:50:18.886Z,60.00
2018-07-07T14:52:47.992Z,58.80
2018-07-07T14:55:17.977Z,59.90
2018-07-07T14:57:47.092Z,57.80
2018-07-07T15:00:17.328Z,56.10
2018-07-07T15:02:46.713Z,59.10
2018-07-07T15:05:15.656Z,56.70
2018-07-07T15:07:44.600Z,57.80
2018-07-07T15:10:14.104Z,55.30
2018-07-07T15:12:43.529Z,55.80
2018-07-07T15:15:12.694Z,55.40
2018-07-07T15:20:10.957Z,56.90
2018-07-07T15:22:39.923Z,55.80
2018-07-07T15:25:09.468Z,57.10
2018-07-07T15:27:38.158Z,54.70
2018-07-07T15:30:07.879Z,54.70
2018-07-07T15:32:36.651Z,56.50
2018-07-07T15:35:06.222Z,57.80
2018-07-07T15:38:06.167Z,56.50
2018-07-07T15:40:35.537Z,59.30
2018-07-07T15:43:04.652Z,58.20
2018-07-07T15:45:33.547Z,56.90
2018-07-07T15:48:07.958Z,57.00
2018-07-07T15:50:36.980Z,58.00
2018-07-07T15:53:06.204Z,60.50
2018-07-07T15:55:35.283Z,58.20
2018-07-07T15:58:04.226Z,56.90
2018-07-07T16:00:32.600Z,57.10
2018-07-07T16:03:01.540Z,58.50
2018-07-07T16:05:30.436Z,56.20
2018-07-07T16:07:59.064Z,55.30
2018-07-07T16:12:56.066Z,58.00
2018-07-07T16:15:24.448Z,56.20
2018-07-07T16:17:53.542Z,57.50
2018-07-07T16:20:22.170Z,58.70
2018-07-07T16:22:50.798Z,58.40
2018-07-07T16:25:20.576Z,56.80
2018-07-07T16:27:50.353Z,54.20
2018-07-07T16:30:20.722Z,53.60
2018-07-07T16:32:52.931Z,51.90
2018-07-07T16:35:21.659Z,53.80
2018-07-07T16:37:53.318Z,52.60
2018-07-07T16:40:22.027Z,51.50
2018-07-07T16:42:51.053Z,51.40
2018-07-07T16:45:19.671Z,48.50
2018-07-07T16:47:48.209Z,49.70
2018-07-07T16:50:16.870Z,52.40
2018-07-07T16:52:45.492Z,51.00
2018-07-07T16:55:14.364Z,51.60
2018-07-07T16:57:42.939Z,54.10
2018-07-07T17:00:12.698Z,52.40
2018-07-07T17:02:41.273Z,50.60
2018-07-07T17:05:10.421Z,49.40
2018-07-07T17:07:39.043Z,50.70
2018-07-07T17:10:07.917Z,51.70
2018-07-07T17:15:05.262Z,52.20
2018-07-07T17:17:34.572Z,50.70
2018-07-07T17:20:04.364Z,51.50
2018-07-07T17:22:33.665Z,50.00
2018-07-07T17:25:02.375Z,50.20
2018-07-07T17:27:31.139Z,52.90
2018-07-07T17:30:00.064Z,53.00
2018-07-07T17:32:30.141Z,56.60
2018-07-07T17:34:58.897Z,54.60
2018-07-07T17:37:27.549Z,51.80
2018-07-07T17:39:56.460Z,52.30
2018-07-07T17:42:25.232Z,54.00
2018-07-07T17:44:54.232Z,57.00
2018-07-07T17:47:23.230Z,55.20
2018-07-07T17:49:52.204Z,56.20
2018-07-07T17:52:21.339Z,53.40
2018-07-07T17:54:50.298Z,53.00
2018-07-07T17:57:19.608Z,57.50
2018-07-07T17:59:48.561Z,65.10
2018-07-07T18:02:17.274Z,67.20
2018-07-07T18:04:46.612Z,70.60
2018-07-07T18:07:15.575Z,70.90
2018-07-07T18:09:46.572Z,74.10
2018-07-07T18:12:15.639Z,76.80
2018-07-07T18:14:44.632Z,79.90
2018-07-07T18:17:21.942Z,79.40
2018-07-07T18:19:50.866Z,77.10
2018-07-07T18:22:20.178Z,78.50
2018-07-07T18:24:52.577Z,78.80
2018-07-07T18:27:21.786Z,82.20
2018-07-07T18:29:50.875Z,81.80
2018-07-07T18:32:20.174Z,81.80
2018-07-07T18:34:49.164Z,84.90
2018-07-07T18:37:18.159Z,84.40
2018-07-07T18:39:47.204Z,82.20
2018-07-07T18:42:16.943Z,82.40
2018-07-07T18:44:46.311Z,81.40
2018-07-07T18:47:15.255Z,82.20
2018-07-07T18:49:44.306Z,82.40
2018-07-07T18:52:13.304Z,83.70
2018-07-07T18:54:42.280Z,84.40
2018-07-07T18:57:11.215Z,84.10
2018-07-07T18:59:40.636Z,85.30
2018-07-07T19:02:09.440Z,86.90
2018-07-07T19:07:13.486Z,86.40
2018-07-07T19:09:42.422Z,88.60
2018-07-07T19:12:11.557Z,87.40
2018-07-07T19:14:40.487Z,88.80
2018-07-07T19:17:12.856Z,90.70
2018-07-07T19:19:41.825Z,90.00
2018-07-07T19:22:16.553Z,90.40
2018-07-07T19:24:50.795Z,91.10
2018-07-07T19:27:19.747Z,90.50
2018-07-07T19:29:48.858Z,90.10
2018-07-07T19:32:23.381Z,91.10
2018-07-07T19:35:07.513Z,91.10
2018-07-07T19:37:36.646Z,90.80
2018-07-07T19:40:05.586Z,90.90
2018-07-07T19:42:34.632Z,91.50
2018-07-07T19:45:03.552Z,91.70
2018-07-07T19:47:32.485Z,91.70
2018-07-07T19:52:36.026Z,91.70
2018-07-07T19:55:05.185Z,91.10
2018-07-07T19:57:34.231Z,91.60
2018-07-07T20:00:03.663Z,90.70
2018-07-07T20:02:32.291Z,91.00
2018-07-07T20:05:01.332Z,91.60
2018-07-07T20:07:30.246Z,90.90
2018-07-07T20:09:59.298Z,90.70
2018-07-07T20:12:31.828Z,91.20
2018-07-07T20:15:00.761Z,91.90
2018-07-07T20:17:40.891Z,91.40
2018-07-07T20:20:45.763Z,92.50
2018-07-07T20:23:16.140Z,93.20
2018-07-07T20:25:50.436Z,93.40
2018-07-07T20:28:24.993Z,93.40
2018-07-07T20:33:26.837Z,94.20
2018-07-07T20:35:55.774Z,95.00
2018-07-07T20:38:24.957Z,94.60
2018-07-07T20:40:53.522Z,95.90
2018-07-07T20:43:22.820Z,95.90
2018-07-07T20:45:51.763Z,96.30
2018-07-07T20:48:21.231Z,96.80
2018-07-07T20:50:50.103Z,97.40
2018-07-07T20:55:47.110Z,98.10
2018-07-07T20:58:15.831Z,98.40
2018-07-07T21:00:47.204Z,99.40
2018-07-07T21:03:15.559Z,99.90
2018-07-07T21:05:43.929Z,99.90
2018-07-07T21:08:12.283Z,99.80
2018-07-07T21:10:40.667Z,99.90
2018-07-07T21:13:09.067Z,99.90
2018-07-07T21:15:37.619Z,99.90
2018-07-07T21:18:06.002Z,99.90
2018-07-07T21:20:34.419Z,99.90
2018-07-07T21:23:02.852Z,99.90
2018-07-07T21:25:31.333Z,99.90
2018-07-07T21:27:59.766Z,99.90
2018-07-07T21:30:35.196Z,99.90
2018-07-07T21:33:03.586Z,99.90
2018-07-07T21:35:32.051Z,99.90
2018-07-07T21:38:00.697Z,99.90
2018-07-07T21:40:29.095Z,99.90
2018-07-07T21:43:00.529Z,99.90
2018-07-07T21:45:28.924Z,99.90
2018-07-07T21:47:57.269Z,99.90
2018-07-07T21:50:25.598Z,99.90
2018-07-07T21:52:53.952Z,99.90
2018-07-07T21:57:55.751Z,99.90
2018-07-07T22:00:41.415Z,99.90
2018-07-07T22:03:15.158Z,99.90
2018-07-07T22:05:52.070Z,99.90
2018-07-07T22:08:20.748Z,99.90
2018-07-07T22:10:49.424Z,99.90
2018-07-07T22:13:18.069Z,99.90
2018-07-07T22:15:46.383Z,99.90
2018-07-07T22:18:14.700Z,99.90
2018-07-07T22:20:53.167Z,99.90
2018-07-07T22:23:21.546Z,99.90
2018-07-07T22:25:50.205Z,99.90
2018-07-07T22:30:53.357Z,99.90
2018-07-07T22:33:24.680Z,99.90
2018-07-07T22:35:58.796Z,99.90
2018-07-07T22:38:42.015Z,99.90
2018-07-07T22:41:11.334Z,99.90
2018-07-07T22:43:39.694Z,99.90
2018-07-07T22:46:08.043Z,99.90
2018-07-07T22:48:36.433Z,99.90
2018-07-07T22:51:04.912Z,99.90
2018-07-07T22:53:33.636Z,99.90
2018-07-07T22:56:02.317Z,99.90
2018-07-07T22:58:30.932Z,99.90
2018-07-07T23:03:27.319Z,99.90
2018-07-07T23:05:55.893Z,99.90
2018-07-07T23:08:24.367Z,99.90
2018-07-07T23:10:52.718Z,99.90
2018-07-07T23:13:21.036Z,99.90
2018-07-07T23:15:49.352Z,99.90
2018-07-07T23:18:18.380Z,99.90
2018-07-07T23:20:46.680Z,99.90
2018-07-07T23:23:14.967Z,99.90
2018-07-07T23:25:43.500Z,99.90
2018-07-07T23:28:15.208Z,99.90
2018-07-07T23:30:44.257Z,99.90
2018-07-07T23:33:12.902Z,99.90
2018-07-07T23:35:41.209Z,99.90
2018-07-07T23:38:09.536Z,99.90
2018-07-07T23:40:37.844Z,99.90
2018-07-07T23:43:06.568Z,99.90
2018-07-07T23:45:34.859Z,99.90
2018-07-07T23:48:03.187Z,99.90
2018-07-07T23:50:31.466Z,99.90
2018-07-07T23:53:06.544Z,99.90
2018-07-07T23:55:35.174Z,99.90
2018-07-07T23:58:03.530Z,99.90
